Rye, New Hampshire
Current Conditions -  °F | °C
As of 12:58 PM on Monday 24 Nov 2014 (Local Time) from KPSM Reporting Station
Haze Haze  
Wind Chill: 58°   Ceiling: 300
Heat Index: 58°   Visibility: 6mi
Dew Point: 57°   Wind: 7mph
Humidity: 96%   Direction: 150°SSE
Pressure: 29.6"   Gusts: NA
Location:  43.01°N, 70.77°W
Report Text: KPSM 241758Z 15006KT 6SM BR OVC003 15/14 A2960 RMK AO2A DZE1742 SLP027 P0000 60026 T01460139 10146 20113 57033
Loading
Personal Weather Stations






























Interactive Weather Map New forecast layout! Learn more

10-Day Weather Forecast

Advertisements
Track Severe Weather on mobile